createdAt,value
2022-09-22T00:01:21.690Z,1.48
2022-09-22T00:03:51.373Z,1.50
2022-09-22T00:06:19.711Z,1.50
2022-09-22T00:08:52.196Z,1.17
2022-09-22T00:11:29.110Z,1.30
2022-09-22T00:13:59.814Z,1.40
2022-09-22T00:16:30.677Z,1.23
2022-09-22T00:18:58.155Z,1.02
2022-09-22T00:21:28.432Z,1.35
2022-09-22T00:23:55.412Z,1.52
2022-09-22T00:26:24.279Z,1.30
2022-09-22T00:28:52.826Z,1.25
2022-09-22T00:31:23.913Z,1.17
2022-09-22T00:33:53.000Z,1.10
2022-09-22T00:36:23.847Z,1.02
2022-09-22T00:38:51.626Z,1.02
2022-09-22T00:41:23.807Z,1.23
2022-09-22T00:44:12.655Z,1.40
2022-09-22T00:46:43.435Z,1.05
2022-09-22T00:49:13.304Z,1.27
2022-09-22T00:51:43.313Z,1.15
2022-09-22T00:54:14.080Z,1.23
2022-09-22T00:56:50.872Z,1.00
2022-09-22T00:59:21.975Z,0.98
2022-09-22T01:01:49.214Z,1.00
2022-09-22T01:04:17.200Z,1.13
2022-09-22T01:06:45.483Z,1.35
2022-09-22T01:09:13.550Z,1.50
2022-09-22T01:11:41.831Z,1.00
2022-09-22T01:14:11.536Z,1.27
2022-09-22T01:17:02.666Z,1.52
2022-09-22T01:20:06.901Z,1.60
2022-09-22T01:22:49.812Z,1.08
2022-09-22T01:26:14.347Z,1.20
2022-09-22T01:28:47.151Z,1.00
2022-09-22T01:31:14.125Z,1.30
2022-09-22T01:33:58.002Z,1.55
2022-09-22T01:36:33.488Z,1.20
2022-09-22T01:39:11.915Z,1.23
2022-09-22T01:42:07.754Z,1.10
2022-09-22T01:44:47.574Z,1.20
2022-09-22T01:47:23.120Z,1.00
2022-09-22T01:49:57.991Z,1.23
2022-09-22T01:52:31.254Z,1.08
2022-09-22T01:55:06.019Z,1.25
2022-09-22T01:57:47.524Z,1.00
2022-09-22T02:00:15.249Z,1.00
2022-09-22T02:02:58.538Z,1.10
2022-09-22T02:05:41.269Z,1.02
2022-09-22T02:08:15.099Z,1.25
2022-09-22T02:13:11.343Z,1.02
2022-09-22T02:15:57.157Z,1.15
2022-09-22T02:18:32.357Z,1.20
2022-09-22T02:21:00.034Z,1.05
2022-09-22T02:23:28.319Z,1.30
2022-09-22T02:25:55.941Z,1.10
2022-09-22T02:28:25.122Z,0.98
2022-09-22T02:31:18.452Z,1.30
2022-09-22T02:33:42.555Z,1.30
2022-09-22T02:36:16.706Z,1.27
2022-09-22T02:39:10.530Z,1.30
2022-09-22T02:42:01.648Z,1.10
2022-09-22T02:44:35.437Z,1.25
2022-09-22T02:49:33.966Z,1.05
2022-09-22T02:52:01.237Z,1.08
2022-09-22T02:54:28.293Z,1.30
2022-09-22T02:56:55.301Z,1.10
2022-09-22T02:59:22.293Z,1.25
2022-09-22T03:01:49.890Z,1.35
2022-09-22T03:04:16.986Z,1.10
2022-09-22T03:06:43.899Z,1.40
2022-09-22T03:09:10.853Z,1.95
2022-09-22T03:11:37.763Z,1.10
2022-09-22T03:14:04.744Z,1.05
2022-09-22T03:16:31.679Z,0.82
2022-09-22T03:18:58.687Z,1.40
2022-09-22T03:21:25.720Z,1.13
2022-09-22T03:23:52.676Z,1.33
2022-09-22T03:26:19.733Z,1.02
2022-09-22T03:28:46.776Z,1.20
2022-09-22T03:31:13.805Z,1.00
2022-09-22T03:33:40.861Z,1.60
2022-09-22T03:36:08.065Z,1.50
2022-09-22T03:38:35.022Z,1.30
2022-09-22T03:41:02.796Z,1.20
2022-09-22T03:43:29.832Z,1.00
2022-09-22T03:46:01.651Z,1.40
2022-09-22T03:48:31.113Z,1.35
2022-09-22T03:50:58.860Z,1.30
2022-09-22T03:53:26.063Z,1.35
2022-09-22T03:55:53.047Z,1.88
2022-09-22T03:58:21.666Z,1.40
2022-09-22T04:00:49.783Z,1.52
2022-09-22T04:03:16.913Z,1.30
2022-09-22T04:05:51.735Z,1.50
2022-09-22T04:08:18.840Z,1.40
2022-09-22T04:10:46.810Z,1.15
2022-09-22T04:13:14.559Z,1.00
2022-09-22T04:15:42.329Z,1.30
2022-09-22T04:18:10.357Z,1.23
2022-09-22T04:20:41.052Z,1.50
2022-09-22T04:23:08.047Z,1.58
2022-09-22T04:25:35.008Z,1.35
2022-09-22T04:28:05.536Z,1.10
2022-09-22T04:30:33.645Z,1.60
2022-09-22T04:33:01.271Z,1.30
2022-09-22T04:35:28.994Z,1.40
2022-09-22T04:37:57.227Z,1.23
2022-09-22T04:40:25.243Z,1.42
2022-09-22T04:42:53.300Z,1.45
2022-09-22T04:45:20.724Z,1.45
2022-09-22T04:47:49.952Z,1.45
2022-09-22T04:50:18.258Z,1.83
2022-09-22T04:52:47.124Z,2.35
2022-09-22T04:55:15.536Z,2.10
2022-09-22T04:57:47.027Z,1.33
2022-09-22T05:00:14.582Z,1.48
2022-09-22T05:02:41.600Z,1.48
2022-09-22T05:05:09.055Z,1.95
2022-09-22T05:07:36.127Z,1.50
2022-09-22T05:10:05.752Z,1.75
2022-09-22T05:12:33.847Z,1.55
2022-09-22T05:15:00.894Z,1.52
2022-09-22T05:17:28.332Z,1.80
2022-09-22T05:19:55.900Z,1.60
2022-09-22T05:22:22.905Z,2.10
2022-09-22T05:24:49.919Z,1.67
2022-09-22T05:27:18.326Z,1.38
2022-09-22T05:29:45.241Z,2.35
2022-09-22T05:32:12.241Z,2.20
2022-09-22T05:34:39.206Z,2.35
2022-09-22T05:37:06.277Z,1.48
2022-09-22T05:39:33.223Z,1.80
2022-09-22T05:42:00.171Z,1.77
2022-09-22T05:44:27.062Z,1.75
2022-09-22T05:46:53.967Z,1.77
2022-09-22T05:49:20.934Z,1.60
2022-09-22T05:51:47.843Z,1.63
2022-09-22T05:54:14.799Z,1.70
2022-09-22T05:56:41.769Z,2.10
2022-09-22T05:59:08.819Z,1.60
2022-09-22T06:01:35.754Z,2.15
2022-09-22T06:04:02.782Z,1.90
2022-09-22T06:06:29.672Z,1.25
2022-09-22T06:08:56.632Z,1.55
2022-09-22T06:11:23.645Z,1.63
2022-09-22T06:13:50.964Z,1.92
2022-09-22T06:16:18.723Z,2.15
2022-09-22T06:18:47.563Z,1.60
2022-09-22T06:21:16.577Z,2.35
2022-09-22T06:23:43.743Z,1.85
2022-09-22T06:26:11.066Z,1.90
2022-09-22T06:28:38.073Z,2.13
2022-09-22T06:31:05.351Z,2.33
2022-09-22T06:33:32.483Z,1.95
2022-09-22T06:36:01.060Z,2.05
2022-09-22T06:38:28.125Z,2.63
2022-09-22T06:41:01.782Z,2.03
2022-09-22T06:46:00.212Z,1.90
2022-09-22T06:48:27.301Z,2.40
2022-09-22T06:50:54.600Z,2.15
2022-09-22T06:53:24.573Z,2.28
2022-09-22T06:55:54.351Z,1.70
2022-09-22T06:58:22.454Z,1.50
2022-09-22T07:00:50.566Z,2.00
2022-09-22T07:03:23.006Z,2.75
2022-09-22T07:05:54.015Z,3.00
2022-09-22T07:08:22.932Z,2.13
2022-09-22T07:11:01.916Z,2.53
2022-09-22T07:13:30.281Z,1.98
2022-09-22T07:16:07.972Z,1.73
2022-09-22T07:18:36.363Z,1.70
2022-09-22T07:21:08.985Z,2.05
2022-09-22T07:23:36.796Z,3.10
2022-09-22T07:26:05.889Z,3.85
2022-09-22T07:28:35.735Z,3.00
2022-09-22T07:31:12.143Z,2.63
2022-09-22T07:33:41.804Z,2.50
2022-09-22T07:36:15.759Z,2.58
2022-09-22T07:38:44.294Z,2.47
2022-09-22T07:41:13.777Z,3.20
2022-09-22T07:43:42.089Z,2.40
2022-09-22T07:46:09.421Z,2.47
2022-09-22T07:48:37.840Z,2.45
2022-09-22T07:51:11.682Z,2.13
2022-09-22T07:53:41.331Z,2.03
2022-09-22T07:56:13.532Z,1.85
2022-09-22T07:58:51.206Z,2.08
2022-09-22T08:01:23.750Z,1.50
2022-09-22T08:03:52.253Z,1.80
2022-09-22T08:06:23.543Z,2.53
2022-09-22T08:08:56.475Z,1.52
2022-09-22T08:11:29.969Z,1.42
2022-09-22T08:14:01.623Z,2.40
2022-09-22T08:16:32.932Z,1.83
2022-09-22T08:19:03.927Z,1.65
2022-09-22T08:21:35.607Z,1.73
2022-09-22T08:24:04.072Z,1.55
2022-09-22T08:26:31.462Z,1.42
2022-09-22T08:28:59.097Z,1.40
2022-09-22T08:31:27.605Z,1.40
2022-09-22T08:33:55.793Z,1.77
2022-09-22T08:36:25.308Z,1.98
2022-09-22T08:38:52.585Z,1.75
2022-09-22T08:41:22.297Z,1.10
2022-09-22T08:43:55.583Z,1.10
2022-09-22T08:46:36.514Z,1.50
2022-09-22T08:49:46.508Z,1.40
2022-09-22T08:52:18.837Z,1.17
2022-09-22T08:54:46.260Z,1.20
2022-09-22T08:57:34.440Z,1.10
2022-09-22T09:00:06.615Z,1.20
2022-09-22T09:03:15.060Z,1.00
2022-09-22T09:05:42.595Z,1.20
2022-09-22T09:08:39.392Z,1.38
2022-09-22T09:11:25.037Z,1.20
2022-09-22T09:14:13.766Z,1.48
2022-09-22T09:16:57.201Z,1.83
2022-09-22T09:19:45.579Z,1.42
2022-09-22T09:22:29.265Z,1.40
2022-09-22T09:27:59.100Z,1.60
2022-09-22T09:30:26.397Z,1.63
2022-09-22T09:33:06.362Z,1.23
2022-09-22T09:35:45.178Z,1.27
2022-09-22T09:38:17.433Z,1.30
2022-09-22T09:40:58.263Z,1.77
2022-09-22T09:43:27.944Z,1.20
2022-09-22T09:46:14.980Z,1.20
2022-09-22T09:49:09.894Z,1.27
2022-09-22T09:51:40.497Z,1.08
2022-09-22T09:54:14.423Z,1.20
2022-09-22T09:57:11.727Z,1.60
2022-09-22T10:00:02.398Z,1.20
2022-09-22T10:02:49.145Z,1.20
2022-09-22T10:05:16.099Z,1.20
2022-09-22T10:07:48.491Z,1.52
2022-09-22T10:10:35.357Z,1.33
2022-09-22T10:13:04.963Z,1.40
2022-09-22T10:15:38.041Z,1.20
2022-09-22T10:18:23.909Z,1.30
2022-09-22T10:21:14.647Z,0.95
2022-09-22T10:23:46.726Z,0.80
2022-09-22T10:26:18.356Z,1.20
2022-09-22T10:28:50.804Z,1.08
2022-09-22T10:31:25.015Z,1.20
2022-09-22T10:33:58.426Z,0.98
2022-09-22T10:36:28.066Z,0.80
2022-09-22T10:38:58.939Z,0.80
2022-09-22T10:41:34.363Z,1.08
2022-09-22T10:44:34.576Z,1.08
2022-09-22T10:47:41.876Z,1.17
2022-09-22T10:50:28.462Z,1.25
2022-09-22T10:53:22.005Z,1.23
2022-09-22T10:56:13.302Z,0.85
2022-09-22T10:59:04.659Z,0.88
2022-09-22T11:02:07.767Z,1.50
2022-09-22T11:04:54.023Z,1.33
2022-09-22T11:07:47.815Z,1.50
2022-09-22T11:10:56.307Z,1.40
2022-09-22T11:13:41.434Z,1.65
2022-09-22T11:16:17.825Z,1.80
2022-09-22T11:19:03.179Z,2.00
2022-09-22T11:21:49.529Z,2.10
2022-09-22T11:24:22.387Z,2.03
2022-09-22T11:26:54.128Z,2.10
2022-09-22T11:29:41.669Z,2.17
2022-09-22T11:32:23.520Z,2.08
2022-09-22T11:35:08.444Z,1.77
2022-09-22T11:38:02.369Z,1.58
2022-09-22T11:41:01.060Z,2.08
2022-09-22T11:43:33.879Z,2.03
2022-09-22T11:46:22.083Z,2.17
2022-09-22T11:49:13.751Z,2.30
2022-09-22T11:52:05.304Z,2.10
2022-09-22T11:55:25.599Z,3.00
2022-09-22T11:57:59.499Z,2.72
2022-09-22T12:00:33.324Z,3.38
2022-09-22T12:03:12.535Z,3.33
2022-09-22T12:05:58.537Z,2.83
2022-09-22T12:08:32.892Z,3.22
2022-09-22T12:11:00.885Z,3.00
2022-09-22T12:13:31.059Z,2.95
2022-09-22T12:16:18.227Z,2.55
2022-09-22T12:18:51.421Z,2.60
2022-09-22T12:23:51.316Z,3.00
2022-09-22T12:26:34.731Z,2.65
2022-09-22T12:29:07.462Z,2.60
2022-09-22T12:31:36.910Z,2.17
2022-09-22T12:34:07.293Z,2.00
2022-09-22T12:36:39.917Z,2.60
2022-09-22T12:39:44.250Z,2.25
2022-09-22T12:42:25.113Z,2.03
2022-09-22T12:44:59.126Z,1.92
2022-09-22T12:47:29.044Z,2.10
2022-09-22T12:50:01.375Z,2.17
2022-09-22T12:52:40.339Z,2.50
2022-09-22T12:55:28.841Z,1.80
2022-09-22T12:58:04.897Z,1.63
2022-09-22T13:00:39.644Z,1.80
2022-09-22T13:03:25.091Z,1.73
2022-09-22T13:06:15.553Z,2.17
2022-09-22T13:08:42.467Z,1.92
2022-09-22T13:11:10.041Z,2.10
2022-09-22T13:13:47.311Z,2.40
2022-09-22T13:16:15.097Z,2.17
2022-09-22T13:18:46.195Z,2.50
2022-09-22T13:21:14.140Z,1.85
2022-09-22T13:23:54.984Z,2.78
2022-09-22T13:26:25.377Z,2.13
2022-09-22T13:29:19.007Z,2.95
2022-09-22T13:31:47.769Z,2.20
2022-09-22T13:34:31.730Z,2.17
2022-09-22T13:37:08.030Z,2.00
2022-09-22T13:39:40.395Z,2.15
2022-09-22T13:42:15.004Z,1.83
2022-09-22T13:44:46.905Z,1.92
2022-09-22T13:47:22.047Z,2.47
2022-09-22T13:49:53.994Z,1.80
2022-09-22T13:52:24.829Z,1.70
2022-09-22T13:54:56.027Z,2.03
2022-09-22T13:57:29.847Z,1.90
2022-09-22T14:00:01.115Z,1.60
2022-09-22T14:02:31.836Z,2.38
2022-09-22T14:05:09.045Z,1.65
2022-09-22T14:07:55.059Z,2.92
2022-09-22T14:10:28.046Z,2.17
2022-09-22T14:12:55.579Z,1.98
2022-09-22T14:15:37.852Z,1.80
2022-09-22T14:18:29.182Z,1.98
2022-09-22T14:21:01.875Z,2.25
2022-09-22T14:23:32.313Z,2.37
2022-09-22T14:26:04.917Z,2.08
2022-09-22T14:28:36.503Z,2.78
2022-09-22T14:31:16.370Z,3.13
2022-09-22T14:33:47.484Z,2.80
2022-09-22T14:36:21.748Z,2.33
2022-09-22T14:39:07.544Z,3.00
2022-09-22T14:41:42.378Z,2.47
2022-09-22T14:44:54.064Z,2.70
2022-09-22T14:47:29.719Z,2.38
2022-09-22T14:50:13.814Z,2.10
2022-09-22T14:53:16.103Z,2.88
2022-09-22T14:55:47.419Z,2.45
2022-09-22T14:58:21.370Z,2.65
2022-09-22T15:01:11.257Z,3.08
2022-09-22T15:03:39.758Z,3.45
2022-09-22T15:06:09.480Z,4.20
2022-09-22T15:08:36.729Z,3.42
2022-09-22T15:11:03.845Z,2.65
2022-09-22T15:13:41.054Z,3.38
2022-09-22T15:16:41.299Z,2.95
2022-09-22T15:19:13.128Z,2.78
2022-09-22T15:21:47.807Z,2.70
2022-09-22T15:24:21.442Z,3.38
2022-09-22T15:26:48.514Z,3.53
2022-09-22T15:29:17.418Z,3.13
2022-09-22T15:31:44.531Z,3.47
2022-09-22T15:34:13.956Z,2.65
2022-09-22T15:36:45.865Z,3.30
2022-09-22T15:39:21.675Z,2.50
2022-09-22T15:41:49.299Z,3.15
2022-09-22T15:44:16.774Z,2.70
2022-09-22T15:46:45.608Z,2.83
2022-09-22T15:49:18.160Z,2.60
2022-09-22T15:51:45.995Z,2.92
2022-09-22T15:54:21.835Z,2.70
2022-09-22T15:56:52.589Z,2.38
2022-09-22T15:59:27.958Z,2.47
2022-09-22T16:01:57.206Z,2.58
2022-09-22T16:04:24.655Z,3.10
2022-09-22T16:06:59.071Z,3.10
2022-09-22T16:09:26.139Z,2.28
2022-09-22T16:11:53.869Z,2.65
2022-09-22T16:14:22.800Z,2.88
2022-09-22T16:16:50.026Z,2.58
2022-09-22T16:19:17.078Z,2.15
2022-09-22T16:21:54.412Z,2.20
2022-09-22T16:24:22.577Z,2.97
2022-09-22T16:26:51.434Z,2.45
2022-09-22T16:29:18.522Z,2.28
2022-09-22T16:31:45.577Z,1.92
2022-09-22T16:34:12.944Z,1.90
2022-09-22T16:36:41.606Z,2.78
2022-09-22T16:39:08.668Z,3.35
2022-09-22T16:41:36.840Z,2.20
2022-09-22T16:44:05.870Z,2.17
2022-09-22T16:46:37.897Z,2.15
2022-09-22T16:49:12.096Z,3.25
2022-09-22T16:51:44.631Z,2.58
2022-09-22T16:54:14.260Z,2.40
2022-09-22T16:56:46.831Z,2.58
2022-09-22T16:59:18.935Z,2.30
2022-09-22T17:01:46.372Z,2.33
2022-09-22T17:04:19.223Z,2.70
2022-09-22T17:06:47.343Z,2.67
2022-09-22T17:09:15.137Z,2.80
2022-09-22T17:11:43.987Z,2.70
2022-09-22T17:14:16.400Z,2.30
2022-09-22T17:16:48.073Z,2.90
2022-09-22T17:19:22.746Z,2.40
2022-09-22T17:21:52.805Z,2.65
2022-09-22T17:24:20.224Z,2.83
2022-09-22T17:26:55.838Z,2.75
2022-09-22T17:29:32.625Z,2.95
2022-09-22T17:32:05.717Z,2.72
2022-09-22T17:34:33.720Z,3.03
2022-09-22T17:37:03.081Z,2.83
2022-09-22T17:39:31.770Z,2.60
2022-09-22T17:41:58.978Z,2.83
2022-09-22T17:44:28.166Z,3.05
2022-09-22T17:47:13.658Z,2.58
2022-09-22T17:49:59.331Z,2.75
2022-09-22T17:52:29.631Z,3.00
2022-09-22T17:55:07.316Z,2.63
2022-09-22T17:57:37.354Z,2.90
2022-09-22T18:00:07.411Z,3.58
2022-09-22T18:02:38.881Z,2.40
2022-09-22T18:05:12.145Z,2.83
2022-09-22T18:07:42.147Z,3.17
2022-09-22T18:10:14.995Z,3.75
2022-09-22T18:12:42.408Z,3.50
2022-09-22T18:15:13.241Z,3.50
2022-09-22T18:17:42.382Z,3.55
2022-09-22T18:20:14.742Z,3.00
2022-09-22T18:22:44.936Z,3.60
2022-09-22T18:25:12.294Z,3.03
2022-09-22T18:27:40.088Z,3.45
2022-09-22T18:30:07.977Z,3.40
2022-09-22T18:32:35.740Z,3.28
2022-09-22T18:35:02.811Z,4.03
2022-09-22T18:37:29.850Z,3.50
2022-09-22T18:39:56.883Z,3.58
2022-09-22T18:42:24.892Z,4.13
2022-09-22T18:44:52.035Z,3.90
2022-09-22T18:47:21.052Z,4.03
2022-09-22T18:49:50.617Z,3.72
2022-09-22T18:52:24.645Z,3.72
2022-09-22T18:54:54.100Z,3.83
2022-09-22T18:57:23.082Z,4.18
2022-09-22T18:59:51.230Z,4.30
2022-09-22T19:02:22.570Z,3.40
2022-09-22T19:04:51.587Z,3.63
2022-09-22T19:07:41.607Z,3.72
2022-09-22T19:10:15.523Z,3.78
2022-09-22T19:12:43.075Z,3.72
2022-09-22T19:15:13.525Z,4.10
2022-09-22T19:17:44.290Z,4.10
2022-09-22T19:20:17.375Z,4.22
2022-09-22T19:22:45.432Z,3.90
2022-09-22T19:25:12.788Z,4.03
2022-09-22T19:27:40.126Z,4.22
2022-09-22T19:30:09.424Z,4.63
2022-09-22T19:32:37.330Z,4.20
2022-09-22T19:35:06.890Z,3.92
2022-09-22T19:37:33.835Z,4.53
2022-09-22T19:40:00.774Z,4.28
2022-09-22T19:42:28.733Z,4.43
2022-09-22T19:44:55.864Z,3.75
2022-09-22T19:47:23.811Z,4.63
2022-09-22T19:49:50.832Z,4.20
2022-09-22T19:52:17.779Z,4.60
2022-09-22T19:54:44.717Z,4.50
2022-09-22T19:57:15.174Z,4.07
2022-09-22T19:59:42.443Z,4.60
2022-09-22T20:02:15.463Z,5.00
2022-09-22T20:04:42.449Z,4.82
2022-09-22T20:07:10.943Z,4.60
2022-09-22T20:09:38.373Z,5.03
2022-09-22T20:12:06.278Z,4.35
2022-09-22T20:14:34.492Z,4.38
2022-09-22T20:17:05.016Z,4.35
2022-09-22T20:19:34.602Z,4.43
2022-09-22T20:22:18.882Z,4.50
2022-09-22T20:24:54.748Z,4.45
2022-09-22T20:27:33.520Z,4.35
2022-09-22T20:30:01.007Z,4.38
2022-09-22T20:32:34.620Z,4.70
2022-09-22T20:35:01.733Z,4.55
2022-09-22T20:37:30.551Z,5.13
2022-09-22T20:39:57.555Z,4.40
2022-09-22T20:42:24.738Z,4.93
2022-09-22T20:44:51.715Z,4.47
2022-09-22T20:47:21.916Z,4.63
2022-09-22T20:49:51.911Z,5.38
2022-09-22T20:52:20.605Z,4.63
2022-09-22T20:54:48.427Z,5.00
2022-09-22T20:57:16.153Z,4.90
2022-09-22T20:59:46.319Z,4.78
2022-09-22T21:02:14.823Z,4.80
2022-09-22T21:04:41.949Z,5.22
2022-09-22T21:07:11.239Z,4.57
2022-09-22T21:09:56.807Z,4.57
2022-09-22T21:12:30.036Z,5.10
2022-09-22T21:14:59.680Z,4.75
2022-09-22T21:17:27.884Z,5.88
2022-09-22T21:19:58.861Z,5.50
2022-09-22T21:22:28.132Z,5.13
2022-09-22T21:24:55.365Z,5.35
2022-09-22T21:27:22.394Z,5.05
2022-09-22T21:29:49.464Z,5.30
2022-09-22T21:32:16.590Z,5.05
2022-09-22T21:34:43.637Z,5.55
2022-09-22T21:37:10.638Z,5.45
2022-09-22T21:39:37.596Z,5.40
2022-09-22T21:42:04.579Z,5.22
2022-09-22T21:44:31.500Z,5.28
2022-09-22T21:46:58.547Z,5.75
2022-09-22T21:49:25.634Z,5.88
2022-09-22T21:51:52.577Z,5.65
2022-09-22T21:54:19.833Z,6.43
2022-09-22T21:56:48.117Z,6.55
2022-09-22T21:59:15.108Z,6.20
2022-09-22T22:01:44.957Z,6.03
2022-09-22T22:04:15.212Z,6.05
2022-09-22T22:06:44.571Z,6.35
2022-09-22T22:09:17.680Z,5.63
2022-09-22T22:11:48.183Z,6.32
2022-09-22T22:14:17.010Z,5.75
2022-09-22T22:16:46.161Z,5.97
2022-09-22T22:19:15.409Z,5.78
2022-09-22T22:21:43.383Z,5.30
2022-09-22T22:24:18.498Z,6.30
2022-09-22T22:26:57.447Z,6.75
2022-09-22T22:29:26.194Z,5.80
2022-09-22T22:31:53.463Z,6.60
2022-09-22T22:34:23.072Z,6.55
2022-09-22T22:36:50.022Z,7.00
2022-09-22T22:39:17.117Z,6.45
2022-09-22T22:41:44.554Z,6.35
2022-09-22T22:44:12.369Z,6.15
2022-09-22T22:46:39.392Z,6.18
2022-09-22T22:49:07.700Z,7.05
2022-09-22T22:51:36.208Z,6.32
2022-09-22T22:54:03.535Z,7.20
2022-09-22T22:56:31.044Z,6.82
2022-09-22T22:58:58.302Z,7.03
2022-09-22T23:01:30.535Z,6.32
2022-09-22T23:04:02.613Z,6.50
2022-09-22T23:06:38.991Z,6.60
2022-09-22T23:09:10.023Z,6.03
2022-09-22T23:11:39.993Z,6.72
2022-09-22T23:14:11.609Z,6.40
2022-09-22T23:16:40.876Z,6.55
2022-09-22T23:19:10.619Z,6.60
2022-09-22T23:21:37.667Z,6.82
2022-09-22T23:24:05.554Z,6.55
2022-09-22T23:26:33.119Z,7.05
2022-09-22T23:29:01.404Z,6.90
2022-09-22T23:31:28.595Z,6.72
2022-09-22T23:33:57.547Z,6.40
2022-09-22T23:36:26.201Z,6.57
2022-09-22T23:38:54.887Z,6.97
2022-09-22T23:41:22.190Z,6.47
2022-09-22T23:43:49.665Z,6.53
2022-09-22T23:46:16.715Z,6.40
2022-09-22T23:48:43.783Z,6.00
2022-09-22T23:51:10.687Z,6.43
2022-09-22T23:53:38.128Z,7.38
2022-09-22T23:56:06.638Z,6.70
2022-09-22T23:58:34.666Z,6.38
